createdAt,value
2023-02-18T00:01:02.617Z,101658.09
2023-02-18T00:03:30.002Z,101655.72
2023-02-18T00:05:57.092Z,101646.56
2023-02-18T00:08:23.899Z,101655.84
2023-02-18T00:10:50.472Z,101654.97
2023-02-18T00:13:17.039Z,101665.75
2023-02-18T00:15:43.432Z,101667.63
2023-02-18T00:18:09.977Z,101669.28
2023-02-18T00:20:39.422Z,101674.38
2023-02-18T00:23:05.823Z,101680.22
2023-02-18T00:25:32.249Z,101670.28
2023-02-18T00:27:58.639Z,101671.31
2023-02-18T00:30:25.056Z,101667.91
2023-02-18T00:32:51.498Z,101672.75
2023-02-18T00:35:17.889Z,101665.53
2023-02-18T00:37:44.350Z,101667.44
2023-02-18T00:40:11.185Z,101668.75
2023-02-18T00:42:37.551Z,101662.00
2023-02-18T00:45:07.549Z,101655.69
2023-02-18T00:47:33.971Z,101652.78
2023-02-18T00:50:00.367Z,101653.25
2023-02-18T00:52:26.785Z,101644.81
2023-02-18T00:54:53.222Z,101638.91
2023-02-18T00:57:19.648Z,101642.34
2023-02-18T00:59:46.195Z,101658.91
2023-02-18T01:02:12.742Z,101649.19
2023-02-18T01:04:39.318Z,101622.00
2023-02-18T01:07:05.863Z,101629.69
2023-02-18T01:09:32.319Z,101625.44
2023-02-18T01:11:58.713Z,101623.75
2023-02-18T01:14:25.320Z,101625.47
2023-02-18T01:16:51.931Z,101616.75
2023-02-18T01:19:18.380Z,101619.78
2023-02-18T01:21:44.776Z,101610.00
2023-02-18T01:24:11.263Z,101605.53
2023-02-18T01:26:39.873Z,101609.81
2023-02-18T01:29:06.452Z,101602.81
2023-02-18T01:31:33.182Z,101597.06
2023-02-18T01:33:59.658Z,101608.13
2023-02-18T01:36:26.593Z,101614.31
2023-02-18T01:38:53.697Z,101598.78
2023-02-18T01:41:20.566Z,101595.78
2023-02-18T01:43:47.263Z,101590.25
2023-02-18T01:46:17.796Z,101575.38
2023-02-18T01:48:46.948Z,101589.44
2023-02-18T01:51:30.225Z,101600.47
2023-02-18T01:54:09.064Z,101579.66
2023-02-18T01:56:44.047Z,101577.09
2023-02-18T01:59:16.536Z,101573.94
2023-02-18T02:01:45.532Z,101569.88
2023-02-18T02:04:12.664Z,101550.31
2023-02-18T02:06:39.297Z,101560.09
2023-02-18T02:09:10.131Z,101569.88
2023-02-18T02:12:13.442Z,101576.25
2023-02-18T02:15:05.857Z,101569.44
2023-02-18T02:18:10.614Z,101565.41
2023-02-18T02:21:07.543Z,101565.22
2023-02-18T02:23:40.019Z,101556.91
2023-02-18T02:26:39.858Z,101566.47
2023-02-18T02:32:32.103Z,101550.31
2023-02-18T02:35:11.059Z,101540.13
2023-02-18T02:37:44.733Z,101546.28
2023-02-18T02:40:45.751Z,101536.28
2023-02-18T02:43:36.411Z,101526.06
2023-02-18T02:46:09.834Z,101534.56
2023-02-18T02:49:03.773Z,101528.22
2023-02-18T02:51:37.918Z,101521.84
2023-02-18T02:54:13.922Z,101526.94
2023-02-18T02:56:40.483Z,101533.50
2023-02-18T02:59:16.572Z,101514.41
2023-02-18T03:02:11.443Z,101512.47
2023-02-18T03:04:59.924Z,101515.03
2023-02-18T03:07:47.689Z,101516.72
2023-02-18T03:10:40.841Z,101514.16
2023-02-18T03:13:22.839Z,101514.16
2023-02-18T03:15:59.337Z,101509.47
2023-02-18T03:18:51.644Z,101520.53
2023-02-18T03:21:30.167Z,101503.53
2023-02-18T03:24:02.204Z,101498.00
2023-02-18T03:26:31.742Z,101501.84
2023-02-18T03:29:03.813Z,101484.84
2023-02-18T03:31:34.680Z,101493.75
2023-02-18T03:34:32.740Z,101479.28
2023-02-18T03:37:01.102Z,101475.88
2023-02-18T03:39:30.078Z,101475.25
2023-02-18T03:41:56.727Z,101485.44
2023-02-18T03:44:24.887Z,101475.47
2023-02-18T03:46:52.269Z,101461.66
2023-02-18T03:49:18.785Z,101453.75
2023-02-18T03:51:45.232Z,101457.19
2023-02-18T03:54:11.692Z,101461.03
2023-02-18T03:56:38.096Z,101460.81
2023-02-18T03:59:04.638Z,101459.28
2023-02-18T04:01:31.904Z,101446.13
2023-02-18T04:03:58.415Z,101465.25
2023-02-18T04:06:24.975Z,101463.16
2023-02-18T04:08:51.510Z,101457.59
2023-02-18T04:11:18.229Z,101465.03
2023-02-18T04:13:44.667Z,101458.88
2023-02-18T04:16:11.189Z,101456.75
2023-02-18T04:18:37.590Z,101460.56
2023-02-18T04:21:04.346Z,101454.63
2023-02-18T04:23:30.983Z,101458.44
2023-02-18T04:25:57.788Z,101459.09
2023-02-18T04:28:24.520Z,101455.91
2023-02-18T04:30:51.003Z,101454.22
2023-02-18T04:33:17.800Z,101462.72
2023-02-18T04:35:44.510Z,101461.44
2023-02-18T04:38:11.890Z,101469.97
2023-02-18T04:40:38.519Z,101451.88
2023-02-18T04:43:05.203Z,101445.69
2023-02-18T04:45:31.616Z,101442.31
2023-02-18T04:48:01.067Z,101441.88
2023-02-18T04:50:27.960Z,101424.84
2023-02-18T04:52:54.348Z,101424.41
2023-02-18T04:55:20.831Z,101424.41
2023-02-18T04:57:47.415Z,101425.09
2023-02-18T05:00:19.510Z,101421.88
2023-02-18T05:02:46.740Z,101419.97
2023-02-18T05:05:14.955Z,101406.56
2023-02-18T05:07:42.427Z,101417.63
2023-02-18T05:10:11.134Z,101414.44
2023-02-18T05:12:37.768Z,101416.38
2023-02-18T05:15:05.307Z,101411.69
2023-02-18T05:17:31.856Z,101409.59
2023-02-18T05:19:58.441Z,101407.47
2023-02-18T05:22:24.897Z,101404.47
2023-02-18T05:24:54.293Z,101404.25
2023-02-18T05:27:20.674Z,101426.38
2023-02-18T05:29:47.327Z,101412.56
2023-02-18T05:32:14.116Z,101411.91
2023-02-18T05:34:41.013Z,101399.16
2023-02-18T05:37:11.982Z,101401.28
2023-02-18T05:39:38.716Z,101390.47
2023-02-18T05:42:05.242Z,101397.47
2023-02-18T05:44:31.935Z,101393.88
2023-02-18T05:47:00.061Z,101392.56
2023-02-18T05:49:27.266Z,101387.50
2023-02-18T05:51:53.699Z,101393.00
2023-02-18T05:54:20.555Z,101398.34
2023-02-18T05:56:47.371Z,101379.00
2023-02-18T05:59:14.016Z,101395.59
2023-02-18T06:01:41.070Z,101391.31
2023-02-18T06:04:08.051Z,101387.72
2023-02-18T06:06:35.095Z,101393.47
2023-02-18T06:09:02.009Z,101385.38
2023-02-18T06:11:28.722Z,101380.72
2023-02-18T06:13:55.135Z,101397.72
2023-02-18T06:16:21.675Z,101398.78
2023-02-18T06:18:48.197Z,101396.44
2023-02-18T06:21:14.748Z,101383.69
2023-02-18T06:23:42.220Z,101376.47
2023-02-18T06:26:09.330Z,101373.72
2023-02-18T06:28:35.952Z,101366.50
2023-02-18T06:31:02.561Z,101375.00
2023-02-18T06:33:29.382Z,101368.63
2023-02-18T06:36:11.954Z,101377.97
2023-02-18T06:38:41.029Z,101382.44
2023-02-18T06:41:08.681Z,101385.84
2023-02-18T06:43:35.404Z,101383.72
2023-02-18T06:46:02.292Z,101377.78
2023-02-18T06:48:29.057Z,101380.31
2023-02-18T06:50:55.468Z,101374.81
2023-02-18T06:53:21.985Z,101365.84
2023-02-18T06:55:48.461Z,101367.13
2023-02-18T06:58:15.148Z,101364.59
2023-02-18T07:00:41.902Z,101366.06
2023-02-18T07:03:08.793Z,101372.88
2023-02-18T07:05:35.277Z,101364.59
2023-02-18T07:08:01.834Z,101366.25
2023-02-18T07:10:28.262Z,101382.84
2023-02-18T07:12:54.685Z,101381.97
2023-02-18T07:15:24.223Z,101371.38
2023-02-18T07:17:51.923Z,101384.31
2023-02-18T07:20:19.502Z,101379.84
2023-02-18T07:22:46.091Z,101374.75
2023-02-18T07:25:12.876Z,101362.44
2023-02-18T07:27:39.653Z,101361.16
2023-02-18T07:30:07.109Z,101351.19
2023-02-18T07:32:33.560Z,101351.81
2023-02-18T07:34:59.946Z,101365.63
2023-02-18T07:37:26.422Z,101370.94
2023-02-18T07:39:52.838Z,101375.16
2023-02-18T07:42:19.305Z,101372.19
2023-02-18T07:44:45.900Z,101373.25
2023-02-18T07:47:15.576Z,101371.94
2023-02-18T07:49:42.108Z,101378.53
2023-02-18T07:52:08.703Z,101378.56
2023-02-18T07:54:35.350Z,101394.69
2023-02-18T07:57:01.820Z,101400.66
2023-02-18T07:59:28.239Z,101401.69
2023-02-18T08:01:54.757Z,101400.22
2023-02-18T08:04:21.353Z,101406.56
2023-02-18T08:06:49.692Z,101402.31
2023-02-18T08:09:17.607Z,101415.50
2023-02-18T08:11:44.644Z,101408.94
2023-02-18T08:14:11.252Z,101401.44
2023-02-18T08:16:37.763Z,101402.31
2023-02-18T08:19:04.433Z,101399.34
2023-02-18T08:21:31.625Z,101401.88
2023-02-18T08:23:58.861Z,101385.72
2023-02-18T08:26:25.426Z,101396.13
2023-02-18T08:28:51.929Z,101393.81
2023-02-18T08:31:21.485Z,101397.19
2023-02-18T08:33:48.866Z,101406.13
2023-02-18T08:36:15.291Z,101401.22
2023-02-18T08:38:41.795Z,101392.94
2023-02-18T08:41:09.219Z,101392.53
2023-02-18T08:43:36.508Z,101405.09
2023-02-18T08:46:03.441Z,101402.06
2023-02-18T08:48:30.425Z,101408.03
2023-02-18T08:50:56.891Z,101408.69
2023-02-18T08:53:23.768Z,101407.19
2023-02-18T08:55:50.292Z,101410.41
2023-02-18T08:58:17.343Z,101413.38
2023-02-18T09:00:44.663Z,101421.22
2023-02-18T09:03:13.693Z,101424.88
2023-02-18T09:05:40.610Z,101431.66
2023-02-18T09:08:07.124Z,101469.47
2023-02-18T09:10:34.266Z,101453.78
2023-02-18T09:13:00.671Z,101468.88
2023-02-18T09:15:27.101Z,101469.09
2023-02-18T09:17:53.549Z,101484.22
2023-02-18T09:20:20.024Z,101493.53
2023-02-18T09:22:46.427Z,101472.94
2023-02-18T09:25:12.884Z,101485.25
2023-02-18T09:27:39.273Z,101484.84
2023-02-18T09:30:06.772Z,101470.78
2023-02-18T09:32:35.197Z,101462.72
2023-02-18T09:35:02.964Z,101473.34
2023-02-18T09:37:29.492Z,101459.09
2023-02-18T09:39:56.026Z,101447.41
2023-02-18T09:42:30.366Z,101453.38
2023-02-18T09:45:02.399Z,101448.25
2023-02-18T09:47:37.486Z,101436.97
2023-02-18T09:50:13.984Z,101436.34
2023-02-18T09:52:40.448Z,101444.41
2023-02-18T09:55:27.553Z,101418.03
2023-02-18T09:58:11.920Z,101412.94
2023-02-18T10:00:42.132Z,101416.13
2023-02-18T10:03:15.334Z,101424.03
2023-02-18T10:05:59.376Z,101414.25
2023-02-18T10:08:33.987Z,101424.88
2023-02-18T10:11:00.573Z,101386.44
2023-02-18T10:13:33.073Z,101412.16
2023-02-18T10:16:00.390Z,101386.22
2023-02-18T10:18:33.813Z,101400.22
2023-02-18T10:21:10.336Z,101395.53
2023-02-18T10:23:40.558Z,101392.53
2023-02-18T10:26:12.515Z,101389.75
2023-02-18T10:28:39.192Z,101398.28
2023-02-18T10:31:11.933Z,101402.94
2023-02-18T10:33:48.016Z,101403.41
2023-02-18T10:36:42.815Z,101404.03
2023-02-18T10:39:32.775Z,101409.16
2023-02-18T10:42:12.642Z,101400.41
2023-02-18T10:45:23.988Z,101387.47
2023-02-18T10:48:09.422Z,101398.53
2023-02-18T10:50:40.519Z,101394.69
2023-02-18T10:53:31.159Z,101398.94
2023-02-18T10:56:00.304Z,101383.22
2023-02-18T10:58:42.794Z,101380.63
2023-02-18T11:01:22.239Z,101375.53
2023-02-18T11:03:51.734Z,101364.03
2023-02-18T11:06:34.131Z,101370.63
2023-02-18T11:09:02.077Z,101358.09
2023-02-18T11:11:36.409Z,101361.91
2023-02-18T11:14:05.405Z,101347.19
2023-02-18T11:16:53.585Z,101349.31
2023-02-18T11:19:38.307Z,101341.06
2023-02-18T11:22:28.547Z,101344.22
2023-02-18T11:24:57.539Z,101327.78
2023-02-18T11:27:26.363Z,101324.94
2023-02-18T11:29:59.310Z,101338.75
2023-02-18T11:32:28.699Z,101342.13
2023-02-18T11:34:55.654Z,101341.22
2023-02-18T11:37:23.068Z,101353.16
2023-02-18T11:39:52.830Z,101330.16
2023-02-18T11:42:22.704Z,101337.81
2023-02-18T11:45:00.257Z,101342.88
2023-02-18T11:47:35.024Z,101354.31
2023-02-18T11:50:10.271Z,101354.06
2023-02-18T11:52:42.534Z,101353.94
2023-02-18T11:55:22.035Z,101362.25
2023-02-18T11:57:58.856Z,101358.81
2023-02-18T12:00:37.032Z,101357.81
2023-02-18T12:03:18.145Z,101363.09
2023-02-18T12:05:45.665Z,101355.03
2023-02-18T12:08:23.921Z,101350.53
2023-02-18T12:10:54.550Z,101345.44
2023-02-18T12:13:31.303Z,101343.38
2023-02-18T12:16:23.499Z,101341.66
2023-02-18T12:19:10.281Z,101341.00
2023-02-18T12:21:44.533Z,101351.00
2023-02-18T12:24:25.893Z,101336.78
2023-02-18T12:27:22.930Z,101336.53
2023-02-18T12:30:01.350Z,101335.47
2023-02-18T12:32:51.869Z,101342.72
2023-02-18T12:35:46.048Z,101341.88
2023-02-18T12:38:40.422Z,101350.16
2023-02-18T12:41:34.483Z,101348.28
2023-02-18T12:44:28.725Z,101340.00
2023-02-18T12:47:32.213Z,101353.16
2023-02-18T12:50:01.649Z,101352.09
2023-02-18T12:52:51.832Z,101348.06
2023-02-18T12:55:55.734Z,101349.13
2023-02-18T12:58:34.271Z,101342.75
2023-02-18T13:01:14.234Z,101348.06
2023-02-18T13:04:05.433Z,101348.69
2023-02-18T13:07:05.752Z,101348.28
2023-02-18T13:09:47.376Z,101357.63
2023-02-18T13:12:26.751Z,101346.16
2023-02-18T13:15:05.108Z,101357.47
2023-02-18T13:17:37.036Z,101365.53
2023-02-18T13:20:13.998Z,101361.09
2023-02-18T13:22:40.541Z,101368.53
2023-02-18T13:25:13.435Z,101356.00
2023-02-18T13:27:44.309Z,101361.13
2023-02-18T13:30:31.684Z,101364.53
2023-02-18T13:33:12.300Z,101370.69
2023-02-18T13:35:48.907Z,101363.44
2023-02-18T13:38:53.597Z,101362.41
2023-02-18T13:41:20.923Z,101359.84
2023-02-18T13:43:48.335Z,101361.13
2023-02-18T13:46:18.979Z,101359.84
2023-02-18T13:48:54.988Z,101354.53
2023-02-18T13:51:31.553Z,101357.31
2023-02-18T13:54:13.126Z,101360.69
2023-02-18T13:56:58.086Z,101351.34
2023-02-18T13:59:30.194Z,101365.78
2023-02-18T14:02:27.819Z,101353.03
2023-02-18T14:04:55.391Z,101356.88
2023-02-18T14:07:24.869Z,101357.47
2023-02-18T14:09:53.954Z,101360.25
2023-02-18T14:12:23.451Z,101354.72
2023-02-18T14:14:50.756Z,101350.91
2023-02-18T14:17:19.919Z,101354.72
2023-02-18T14:20:01.550Z,101350.03
2023-02-18T14:22:28.335Z,101350.47
2023-02-18T14:25:13.199Z,101351.97
2023-02-18T14:27:41.361Z,101348.78
2023-02-18T14:30:22.779Z,101341.75
2023-02-18T14:32:52.744Z,101344.72
2023-02-18T14:35:31.077Z,101343.88
2023-02-18T14:38:06.924Z,101340.22
2023-02-18T14:40:41.688Z,101339.63
2023-02-18T14:43:30.512Z,101345.59
2023-02-18T14:45:59.820Z,101342.19
2023-02-18T14:49:03.731Z,101339.00
2023-02-18T14:51:32.377Z,101340.22
2023-02-18T14:54:06.207Z,101330.47
2023-02-18T14:56:38.409Z,101333.84
2023-02-18T14:59:05.922Z,101334.69
2023-02-18T15:01:35.390Z,101330.88
2023-02-18T15:04:03.655Z,101332.56
2023-02-18T15:06:37.571Z,101335.97
2023-02-18T15:09:20.282Z,101337.03
2023-02-18T15:12:08.056Z,101332.97
2023-02-18T15:14:37.503Z,101335.94
2023-02-18T15:17:05.521Z,101329.53
2023-02-18T15:19:43.358Z,101338.91
2023-02-18T15:22:22.714Z,101332.56
2023-02-18T15:24:51.241Z,101331.03
2023-02-18T15:27:21.538Z,101345.28
2023-02-18T15:29:52.791Z,101339.38
2023-02-18T15:32:29.746Z,101342.13
2023-02-18T15:35:01.644Z,101343.19
2023-02-18T15:37:29.257Z,101333.84
2023-02-18T15:39:55.741Z,101347.88
2023-02-18T15:42:28.689Z,101337.69
2023-02-18T15:45:21.507Z,101335.38
2023-02-18T15:47:53.659Z,101335.38
2023-02-18T15:50:24.076Z,101330.53
2023-02-18T15:52:53.768Z,101341.13
2023-02-18T15:55:38.330Z,101348.78
2023-02-18T15:58:13.647Z,101340.06
2023-02-18T16:00:47.237Z,101333.03
2023-02-18T16:03:19.898Z,101335.78
2023-02-18T16:05:46.363Z,101337.28
2023-02-18T16:08:17.035Z,101335.56
2023-02-18T16:10:53.088Z,101336.41
2023-02-18T16:13:20.078Z,101335.09
2023-02-18T16:15:49.932Z,101329.59
2023-02-18T16:18:29.150Z,101343.00
2023-02-18T16:21:18.341Z,101339.00
2023-02-18T16:23:57.854Z,101339.16
2023-02-18T16:26:40.746Z,101332.34
2023-02-18T16:29:35.098Z,101324.91
2023-02-18T16:32:01.807Z,101347.06
2023-02-18T16:34:28.297Z,101357.69
2023-02-18T16:37:13.504Z,101344.31
2023-02-18T16:39:40.122Z,101342.59
2023-02-18T16:42:13.173Z,101347.53
2023-02-18T16:44:40.731Z,101345.59
2023-02-18T16:47:08.151Z,101352.59
2023-02-18T16:49:35.225Z,101351.97
2023-02-18T16:52:08.100Z,101354.09
2023-02-18T16:54:35.282Z,101355.81
2023-02-18T16:57:01.719Z,101362.41
2023-02-18T16:59:28.130Z,101354.31
2023-02-18T17:01:56.010Z,101355.56
2023-02-18T17:04:23.545Z,101358.13
2023-02-18T17:06:50.098Z,101347.50
2023-02-18T17:09:22.200Z,101357.31
2023-02-18T17:11:52.063Z,101356.88
2023-02-18T17:14:20.642Z,101346.88
2023-02-18T17:16:48.599Z,101359.00
2023-02-18T17:19:15.907Z,101358.16
2023-02-18T17:21:42.788Z,101357.72
2023-02-18T17:24:17.263Z,101364.56
2023-02-18T17:26:44.218Z,101356.47
2023-02-18T17:29:10.760Z,101366.03
2023-02-18T17:31:44.448Z,101368.81
2023-02-18T17:34:15.944Z,101363.72
2023-02-18T17:36:45.371Z,101362.44
2023-02-18T17:39:17.334Z,101366.25
2023-02-18T17:41:44.112Z,101377.97
2023-02-18T17:44:22.152Z,101370.50
2023-02-18T17:46:49.937Z,101379.66
2023-02-18T17:49:17.156Z,101385.19
2023-02-18T17:51:43.578Z,101389.66
2023-02-18T17:54:13.625Z,101380.31
2023-02-18T17:56:40.607Z,101377.31
2023-02-18T17:59:07.280Z,101385.41
2023-02-18T18:01:34.157Z,101382.63
2023-02-18T18:04:00.826Z,101375.63
2023-02-18T18:06:27.978Z,101374.56
2023-02-18T18:08:54.485Z,101375.63
2023-02-18T18:11:24.369Z,101368.41
2023-02-18T18:13:53.006Z,101361.41
2023-02-18T18:16:20.280Z,101367.97
2023-02-18T18:18:46.881Z,101370.31
2023-02-18T18:21:23.201Z,101366.91
2023-02-18T18:23:50.598Z,101367.16
2023-02-18T18:26:17.187Z,101363.53
2023-02-18T18:28:43.640Z,101363.31
2023-02-18T18:31:15.712Z,101364.59
2023-02-18T18:33:43.192Z,101370.09
2023-02-18T18:36:10.006Z,101369.25
2023-02-18T18:38:36.639Z,101368.00
2023-02-18T18:41:03.194Z,101369.25
2023-02-18T18:43:33.069Z,101369.25
2023-02-18T18:46:00.385Z,101363.72
2023-02-18T18:48:27.030Z,101370.53
2023-02-18T18:50:53.861Z,101363.75
2023-02-18T18:53:25.810Z,101380.09
2023-02-18T18:55:55.617Z,101378.63
2023-02-18T18:58:24.306Z,101378.38
2023-02-18T19:00:57.523Z,101373.09
2023-02-18T19:03:28.679Z,101377.75
2023-02-18T19:05:56.328Z,101369.06
2023-02-18T19:08:23.040Z,101372.69
2023-02-18T19:10:55.020Z,101371.59
2023-02-18T19:13:30.559Z,101369.91
2023-02-18T19:16:12.115Z,101372.25
2023-02-18T19:18:38.625Z,101363.13
2023-02-18T19:21:05.288Z,101362.25
2023-02-18T19:23:32.415Z,101357.38
2023-02-18T19:25:59.153Z,101363.75
2023-02-18T19:28:26.588Z,101366.50
2023-02-18T19:30:53.142Z,101360.38
2023-02-18T19:33:19.719Z,101356.50
2023-02-18T19:35:46.176Z,101346.31
2023-02-18T19:38:15.096Z,101352.25
2023-02-18T19:40:43.194Z,101353.53
2023-02-18T19:43:10.576Z,101353.97
2023-02-18T19:45:42.992Z,101343.75
2023-02-18T19:48:10.836Z,101343.75
2023-02-18T19:50:37.388Z,101352.69
2023-02-18T19:53:04.029Z,101338.25
2023-02-18T19:55:30.565Z,101354.19
2023-02-18T19:57:57.066Z,101339.50
2023-02-18T20:00:23.615Z,101342.91
2023-02-18T20:02:50.427Z,101343.13
2023-02-18T20:05:17.637Z,101332.28
2023-02-18T20:07:46.580Z,101335.69
2023-02-18T20:10:16.268Z,101326.13
2023-02-18T20:12:43.082Z,101329.31
2023-02-18T20:15:10.244Z,101329.75
2023-02-18T20:17:38.681Z,101326.75
2023-02-18T20:20:05.736Z,101336.13
2023-02-18T20:22:32.113Z,101330.59
2023-02-18T20:24:59.455Z,101323.38
2023-02-18T20:27:25.888Z,101336.13
2023-02-18T20:29:52.533Z,101321.22
2023-02-18T20:32:19.209Z,101319.97
2023-02-18T20:34:45.917Z,101321.25
2023-02-18T20:37:12.467Z,101324.22
2023-02-18T20:39:38.829Z,101316.16
2023-02-18T20:42:15.457Z,101309.16
2023-02-18T20:44:43.678Z,101309.81
2023-02-18T20:47:10.196Z,101310.44
2023-02-18T20:49:36.964Z,101303.88
2023-02-18T20:52:03.444Z,101310.25
2023-02-18T20:54:29.898Z,101302.16
2023-02-18T20:56:56.315Z,101313.19
2023-02-18T20:59:22.711Z,101302.16
2023-02-18T21:01:49.267Z,101302.16
2023-02-18T21:04:19.685Z,101307.69
2023-02-18T21:06:47.705Z,101312.78
2023-02-18T21:09:16.175Z,101297.06
2023-02-18T21:11:43.949Z,101296.41
2023-02-18T21:14:11.008Z,101292.16
2023-02-18T21:16:40.361Z,101290.69
2023-02-18T21:19:16.857Z,101294.50
2023-02-18T21:21:44.781Z,101288.13
2023-02-18T21:24:11.653Z,101284.31
2023-02-18T21:26:38.497Z,101287.31
2023-02-18T21:29:07.858Z,101281.56
2023-02-18T21:31:40.818Z,101274.34
2023-02-18T21:34:11.553Z,101277.75
2023-02-18T21:36:38.218Z,101264.59
2023-02-18T21:39:08.958Z,101267.34
2023-02-18T21:41:38.530Z,101262.66
2023-02-18T21:44:06.994Z,101267.75
2023-02-18T21:46:34.645Z,101265.00
2023-02-18T21:49:06.894Z,101259.72
2023-02-18T21:51:51.767Z,101255.25
2023-02-18T21:54:20.565Z,101263.28
2023-02-18T21:56:47.530Z,101259.72
2023-02-18T21:59:14.224Z,101252.91
2023-02-18T22:01:41.277Z,101253.97
2023-02-18T22:04:07.898Z,101261.63
2023-02-18T22:06:34.647Z,101257.16
2023-02-18T22:09:01.876Z,101250.34
2023-02-18T22:11:29.702Z,101260.53
2023-02-18T22:13:56.406Z,101261.19
2023-02-18T22:16:22.866Z,101256.06
2023-02-18T22:18:50.305Z,101250.31
2023-02-18T22:21:16.949Z,101254.59
2023-02-18T22:23:43.482Z,101255.19
2023-02-18T22:26:10.725Z,101247.97
2023-02-18T22:28:37.346Z,101253.72
2023-02-18T22:31:08.914Z,101249.66
2023-02-18T22:33:35.638Z,101250.50
2023-02-18T22:36:04.901Z,101240.97
2023-02-18T22:38:33.134Z,101244.13
2023-02-18T22:41:07.473Z,101244.41
2023-02-18T22:43:34.262Z,101236.94
2023-02-18T22:46:09.491Z,101240.13
2023-02-18T22:48:37.311Z,101243.50
2023-02-18T22:51:19.405Z,101244.81
2023-02-18T22:53:46.374Z,101243.97
2023-02-18T22:56:15.696Z,101237.13
2023-02-18T22:58:43.279Z,101239.50
2023-02-18T23:01:20.518Z,101229.91
2023-02-18T23:03:47.126Z,101237.13
2023-02-18T23:06:13.657Z,101229.09
2023-02-18T23:08:40.518Z,101238.88
2023-02-18T23:11:10.493Z,101232.09
2023-02-18T23:13:37.794Z,101232.53
2023-02-18T23:16:07.306Z,101227.81
2023-02-18T23:18:35.358Z,101213.19
2023-02-18T23:21:22.360Z,101211.28
2023-02-18T23:23:51.657Z,101199.81
2023-02-18T23:26:20.456Z,101194.72
2023-02-18T23:28:50.094Z,101189.63
2023-02-18T23:31:19.059Z,101197.47
2023-02-18T23:33:52.595Z,101194.28
2023-02-18T23:36:21.363Z,101203.22
2023-02-18T23:38:49.214Z,101190.06
2023-02-18T23:41:16.827Z,101218.94
2023-02-18T23:43:44.394Z,101218.94
2023-02-18T23:46:14.604Z,101225.09
2023-02-18T23:48:41.438Z,101227.41
2023-02-18T23:51:09.842Z,101217.88
2023-02-18T23:53:37.500Z,101220.19
2023-02-18T23:56:22.531Z,101222.72
2023-02-18T23:58:52.377Z,101222.72
